Waitsfield, VT (05673)

2:06 PM EST on November 23, 2014 (GMT -0500)
Norm's Weather | Change Station
CLOSE
Current Station
Personal Weather Station
Location: Waitsfield, VT
Elevation: 1150 ft
Nearby Weather Stations

Elev 1150 ft 44.16 °N, 72.82 °W | Updated 4 seconds ago

Overcast
Overcast
47.0 °F
Feels Like 42 °F
N
10.0
Wind Variable Wind from SSW
Gusts 12.0 mph

Today
High -- | Low -- °F
--% Chance of Precip.
Yesterday
High -- | Low -- °F
Precip. -- in
6:57 AM 4:18 PM
New Moon, 2% visible
Pressure 30.10 in
Visibility 10.0 miles
Clouds Mostly Cloudy 4800 ft
Windchill 42 °F
Dew Point 42 °F
Humidity 83%
Rainfall 0.02 in
Snow Depth Not available.
UV 1 out of 12
Pollen .10 out of 12
Air Quality Not available.
Flu Activity Not available.
METAR KMPV 231851Z AUTO VRB05KT 10SM BKN048 11/04 A3008 RMK AO2 SLP192 T01060039

More Conditions Fewer Conditions

Pressure 30.10 in
Visibility 10.0 miles
Clouds Mostly Cloudy 4800 ft
Windchill 42 °F
Dew Point 42 °F
Humidity 83%
Rainfall 0.02 in
Snow Depth Not available.
UV 1 out of 12
Pollen .10 out of 12
Air Quality Not available.
Flu Activity Not available.
METAR KMPV 231851Z AUTO VRB05KT 10SM BKN048 11/04 A3008 RMK AO2 SLP192 T01060039

More Conditions Fewer Conditions

10-Day Weather Forecast

Almanac

Astronomy

Nov. 23, 2014 Rise Set
Actual Time
Civil Twilight
Nautical Twilight
Astronomical Twilight
Moon
Length of Visible Light
Length of Day
Tomorrow will be .
, % of the Moon is Illuminated

Today's Extremes

State Highs State Lows

Community

WunderPhotos

Upload Photos

1,773,135 photos uploaded!

WunderBlogs® & News

Nearby

Air Quality

  Air Quality AQ Index Pollutant
Not available.

Snow Depth

Station Depth Elevation

Earthquake Activity

City Distance Mag. Time & Date
Minimum magnitude displayed is 2.5.

Coastal Water Temperatures

Place Temperature

Nearby Weather Stations